createdAt,value
2023-02-09T00:01:08.987Z,-11.26
2023-02-09T00:03:37.099Z,-11.33
2023-02-09T00:06:06.628Z,-11.39
2023-02-09T00:08:34.851Z,-11.44
2023-02-09T00:11:09.013Z,-11.47
2023-02-09T00:13:37.199Z,-11.54
2023-02-09T00:16:05.149Z,-11.59
2023-02-09T00:18:33.971Z,-11.65
2023-02-09T00:21:01.963Z,-11.77
2023-02-09T00:23:30.129Z,-11.88
2023-02-09T00:26:06.081Z,-11.96
2023-02-09T00:28:33.955Z,-12.00
2023-02-09T00:31:09.306Z,-11.99
2023-02-09T00:33:37.900Z,-12.00
2023-02-09T00:36:09.760Z,-12.00
2023-02-09T00:38:37.158Z,-11.97
2023-02-09T00:41:04.530Z,-11.89
2023-02-09T00:43:32.529Z,-11.84
2023-02-09T00:45:59.522Z,-11.76
2023-02-09T00:48:26.768Z,-11.65
2023-02-09T00:50:54.617Z,-11.56
2023-02-09T00:53:22.764Z,-11.50
2023-02-09T00:55:50.356Z,-11.49
2023-02-09T00:58:18.094Z,-11.44
2023-02-09T01:00:45.630Z,-11.31
2023-02-09T01:03:13.096Z,-11.19
2023-02-09T01:05:42.022Z,-11.11
2023-02-09T01:08:09.232Z,-11.00
2023-02-09T01:10:37.923Z,-10.91
2023-02-09T01:13:05.547Z,-10.89
2023-02-09T01:15:32.575Z,-11.00
2023-02-09T01:18:00.045Z,-11.12
2023-02-09T01:20:27.695Z,-11.20
2023-02-09T01:22:54.701Z,-11.27
2023-02-09T01:25:21.934Z,-11.35
2023-02-09T01:27:48.819Z,-11.42
2023-02-09T01:30:16.893Z,-11.47
2023-02-09T01:32:44.101Z,-11.49
2023-02-09T01:35:11.735Z,-11.48
2023-02-09T01:37:38.723Z,-11.42
2023-02-09T01:40:07.301Z,-11.33
2023-02-09T01:42:34.237Z,-11.27
2023-02-09T01:45:27.440Z,-11.24
2023-02-09T01:48:01.680Z,-11.22
2023-02-09T01:50:33.387Z,-11.15
2023-02-09T01:53:01.605Z,-11.10
2023-02-09T01:55:29.919Z,-11.04
2023-02-09T01:58:01.591Z,-11.02
2023-02-09T02:00:28.621Z,-11.02
2023-02-09T02:03:01.863Z,-11.04
2023-02-09T02:05:31.513Z,-11.04
2023-02-09T02:08:07.902Z,-11.05
2023-02-09T02:10:35.034Z,-11.04
2023-02-09T02:13:03.127Z,-11.00
2023-02-09T02:15:40.859Z,-11.07
2023-02-09T02:18:26.482Z,-11.19
2023-02-09T02:21:30.772Z,-11.35
2023-02-09T02:24:19.408Z,-11.41
2023-02-09T02:27:04.937Z,-11.39
2023-02-09T02:30:06.916Z,-11.33
2023-02-09T02:32:48.655Z,-11.34
2023-02-09T02:35:19.685Z,-11.39
2023-02-09T02:38:11.535Z,-11.47
2023-02-09T02:40:48.386Z,-11.54
2023-02-09T02:43:21.018Z,-11.60
2023-02-09T02:45:57.656Z,-11.63
2023-02-09T02:48:44.372Z,-11.60
2023-02-09T02:51:25.550Z,-11.59
2023-02-09T02:53:57.053Z,-11.57
2023-02-09T02:56:31.888Z,-11.52
2023-02-09T02:59:03.235Z,-11.46
2023-02-09T03:01:35.389Z,-11.41
2023-02-09T03:04:05.009Z,-11.46
2023-02-09T03:06:33.655Z,-11.53
2023-02-09T03:09:00.552Z,-11.52
2023-02-09T03:11:40.852Z,-11.46
2023-02-09T03:14:39.853Z,-11.42
2023-02-09T03:17:25.330Z,-11.47
2023-02-09T03:20:04.857Z,-11.47
2023-02-09T03:22:39.043Z,-11.42
2023-02-09T03:25:35.356Z,-11.33
2023-02-09T03:28:18.212Z,-11.19
2023-02-09T03:30:48.973Z,-11.09
2023-02-09T03:33:29.740Z,-10.99
2023-02-09T03:35:59.188Z,-10.99
2023-02-09T03:38:27.141Z,-11.08
2023-02-09T03:40:54.750Z,-11.18
2023-02-09T03:43:41.889Z,-11.28
2023-02-09T03:46:09.988Z,-11.39
2023-02-09T03:48:37.074Z,-11.47
2023-02-09T03:51:06.780Z,-11.59
2023-02-09T03:53:37.453Z,-11.69
2023-02-09T03:56:05.017Z,-11.81
2023-02-09T03:58:32.364Z,-12.00
2023-02-09T04:01:07.030Z,-12.10
2023-02-09T04:03:34.865Z,-12.12
2023-02-09T04:06:02.368Z,-12.04
2023-02-09T04:08:30.486Z,-11.93
2023-02-09T04:10:57.806Z,-11.82
2023-02-09T04:13:25.719Z,-11.68
2023-02-09T04:15:53.330Z,-11.63
2023-02-09T04:18:20.672Z,-11.63
2023-02-09T04:20:48.063Z,-11.69
2023-02-09T04:23:15.500Z,-11.74
2023-02-09T04:25:42.602Z,-11.75
2023-02-09T04:28:09.935Z,-11.74
2023-02-09T04:30:36.974Z,-11.66
2023-02-09T04:33:04.242Z,-11.58
2023-02-09T04:35:31.138Z,-11.49
2023-02-09T04:37:58.356Z,-11.46
2023-02-09T04:40:25.251Z,-11.48
2023-02-09T04:42:52.503Z,-11.61
2023-02-09T04:45:19.425Z,-11.65
2023-02-09T04:47:46.659Z,-11.68
2023-02-09T04:50:15.102Z,-11.65
2023-02-09T04:52:42.307Z,-11.62
2023-02-09T04:55:09.218Z,-11.61
2023-02-09T04:57:55.256Z,-11.61
2023-02-09T05:00:22.317Z,-11.63
2023-02-09T05:02:49.560Z,-11.71
2023-02-09T05:05:16.657Z,-11.83
2023-02-09T05:07:43.854Z,-11.88
2023-02-09T05:10:10.831Z,-11.99
2023-02-09T05:12:37.992Z,-12.07
2023-02-09T05:15:05.328Z,-12.14
2023-02-09T05:17:33.225Z,-12.21
2023-02-09T05:20:00.253Z,-12.27
2023-02-09T05:22:27.562Z,-12.38
2023-02-09T05:24:54.463Z,-12.46
2023-02-09T05:27:21.680Z,-12.55
2023-02-09T05:29:48.697Z,-12.60
2023-02-09T05:32:15.997Z,-12.59
2023-02-09T05:34:43.004Z,-12.61
2023-02-09T05:37:10.204Z,-12.57
2023-02-09T05:39:37.072Z,-12.56
2023-02-09T05:42:16.696Z,-12.53
2023-02-09T05:44:45.980Z,-12.46
2023-02-09T05:47:14.596Z,-12.38
2023-02-09T05:49:41.725Z,-12.23
2023-02-09T05:52:09.186Z,-12.04
2023-02-09T05:54:36.161Z,-11.85
2023-02-09T05:57:06.288Z,-11.68
2023-02-09T05:59:33.459Z,-11.50
2023-02-09T06:02:01.191Z,-11.41
2023-02-09T06:04:30.506Z,-11.32
2023-02-09T06:06:57.800Z,-11.25
2023-02-09T06:09:24.830Z,-11.22
2023-02-09T06:11:52.157Z,-11.16
2023-02-09T06:14:19.301Z,-10.93
2023-02-09T06:16:46.852Z,-10.44
2023-02-09T06:19:15.908Z,-9.81
2023-02-09T06:21:43.905Z,-9.18
2023-02-09T06:24:11.894Z,-8.51
2023-02-09T06:26:40.292Z,-7.86
2023-02-09T06:29:08.156Z,-7.47
2023-02-09T06:31:36.241Z,-7.07
2023-02-09T06:34:03.224Z,-6.64
2023-02-09T06:36:30.402Z,-6.29
2023-02-09T06:38:57.320Z,-5.92
2023-02-09T06:41:24.559Z,-5.38
2023-02-09T06:43:51.485Z,-4.91
2023-02-09T06:46:18.936Z,-4.56
2023-02-09T06:48:45.857Z,-4.36
2023-02-09T06:51:15.822Z,-4.15
2023-02-09T06:53:43.292Z,-3.91
2023-02-09T06:56:12.249Z,-3.72
2023-02-09T06:58:40.456Z,-3.41
2023-02-09T07:01:10.881Z,-3.03
2023-02-09T07:03:38.109Z,-2.55
2023-02-09T07:06:13.580Z,-2.26
2023-02-09T07:08:41.298Z,-2.06
2023-02-09T07:11:10.661Z,-1.55
2023-02-09T07:13:38.083Z,-1.06
2023-02-09T07:16:07.348Z,-1.16
2023-02-09T07:18:34.513Z,-1.48
2023-02-09T07:21:10.511Z,-1.56
2023-02-09T07:23:38.236Z,-1.96
2023-02-09T07:26:10.761Z,-1.98
2023-02-09T07:28:37.935Z,-2.15
2023-02-09T07:31:07.953Z,-2.65
2023-02-09T07:33:36.236Z,-3.24
2023-02-09T07:36:05.925Z,-3.48
2023-02-09T07:38:33.389Z,-3.57
2023-02-09T07:41:01.943Z,-3.87
2023-02-09T07:43:29.055Z,-4.18
2023-02-09T07:46:00.623Z,-4.36
2023-02-09T07:48:27.914Z,-4.17
2023-02-09T07:50:55.823Z,-3.49
2023-02-09T07:53:23.857Z,-2.43
2023-02-09T07:55:51.362Z,-1.31
2023-02-09T07:58:20.059Z,-0.52
2023-02-09T08:00:49.125Z,0.37
2023-02-09T08:03:19.720Z,1.50
2023-02-09T08:05:55.428Z,2.17
2023-02-09T08:08:22.404Z,2.81
2023-02-09T08:10:50.346Z,3.52
2023-02-09T08:13:17.977Z,3.74
2023-02-09T08:16:01.060Z,3.47
2023-02-09T08:18:32.638Z,3.35
2023-02-09T08:21:00.114Z,3.40
2023-02-09T08:23:31.077Z,3.84
2023-02-09T08:26:02.298Z,4.77
2023-02-09T08:28:42.901Z,5.52
2023-02-09T08:31:15.619Z,5.78
2023-02-09T08:33:44.329Z,6.15
2023-02-09T08:36:12.599Z,6.55
2023-02-09T08:38:40.108Z,6.45
2023-02-09T08:41:09.383Z,6.14
2023-02-09T08:43:37.094Z,6.32
2023-02-09T08:46:13.051Z,6.77
2023-02-09T08:48:42.447Z,7.20
2023-02-09T08:51:11.135Z,7.39
2023-02-09T08:53:38.348Z,7.68
2023-02-09T08:56:06.200Z,8.11
2023-02-09T08:58:33.598Z,8.25
2023-02-09T09:01:00.991Z,7.98
2023-02-09T09:03:31.572Z,7.57
2023-02-09T09:06:07.037Z,6.72
2023-02-09T09:08:35.624Z,6.09
2023-02-09T09:11:03.328Z,5.45
2023-02-09T09:13:30.386Z,4.74
2023-02-09T09:15:57.700Z,3.81
2023-02-09T09:18:25.984Z,2.99
2023-02-09T09:20:53.416Z,2.22
2023-02-09T09:23:21.382Z,2.02
2023-02-09T09:25:49.052Z,2.08
2023-02-09T09:28:16.810Z,2.18
2023-02-09T09:30:44.170Z,2.24
2023-02-09T09:33:11.246Z,2.39
2023-02-09T09:35:38.539Z,2.60
2023-02-09T09:38:05.503Z,2.86
2023-02-09T09:40:35.672Z,3.20
2023-02-09T09:43:05.818Z,3.64
2023-02-09T09:45:38.074Z,4.04
2023-02-09T09:48:07.265Z,4.62
2023-02-09T09:50:41.392Z,5.09
2023-02-09T09:53:25.391Z,5.37
2023-02-09T09:55:56.626Z,5.72
2023-02-09T09:58:23.952Z,6.12
2023-02-09T10:00:52.363Z,6.70
2023-02-09T10:03:22.327Z,7.10
2023-02-09T10:06:01.857Z,7.06
2023-02-09T10:08:28.689Z,7.22
2023-02-09T10:11:11.937Z,7.75
2023-02-09T10:13:52.555Z,8.38
2023-02-09T10:16:25.484Z,8.98
2023-02-09T10:18:54.651Z,9.37
2023-02-09T10:21:23.104Z,9.11
2023-02-09T10:24:02.910Z,9.14
2023-02-09T10:26:37.878Z,8.86
2023-02-09T10:29:11.322Z,8.44
2023-02-09T10:31:47.230Z,8.01
2023-02-09T10:34:23.051Z,7.45
2023-02-09T10:36:55.818Z,6.94
2023-02-09T10:39:35.807Z,6.85
2023-02-09T10:42:37.667Z,6.44
2023-02-09T10:45:18.037Z,5.86
2023-02-09T10:47:57.859Z,5.66
2023-02-09T10:50:24.785Z,5.50
2023-02-09T10:53:02.335Z,5.42
2023-02-09T10:55:42.436Z,5.61
2023-02-09T10:58:09.528Z,5.81
2023-02-09T11:00:42.569Z,5.94
2023-02-09T11:03:19.138Z,6.05
2023-02-09T11:05:47.883Z,6.40
2023-02-09T11:08:23.446Z,6.89
2023-02-09T11:11:15.712Z,7.34
2023-02-09T11:13:43.003Z,8.18
2023-02-09T11:16:22.087Z,8.96
2023-02-09T11:18:59.981Z,10.00
2023-02-09T11:21:51.788Z,11.19
2023-02-09T11:24:48.068Z,11.77
2023-02-09T11:27:26.950Z,11.86
2023-02-09T11:30:08.817Z,12.45
2023-02-09T11:32:51.859Z,13.45
2023-02-09T11:35:22.503Z,14.19
2023-02-09T11:38:03.372Z,13.86
2023-02-09T11:40:37.691Z,14.03
2023-02-09T11:43:10.540Z,13.97
2023-02-09T11:45:51.214Z,13.22
2023-02-09T11:48:22.625Z,13.25
2023-02-09T11:50:49.967Z,13.62
2023-02-09T11:53:39.631Z,12.93
2023-02-09T11:56:11.029Z,12.48
2023-02-09T11:58:46.986Z,12.88
2023-02-09T12:01:26.225Z,12.09
2023-02-09T12:04:17.968Z,11.96
2023-02-09T12:06:49.717Z,12.61
2023-02-09T12:09:28.824Z,12.45
2023-02-09T12:12:01.780Z,12.48
2023-02-09T12:14:45.542Z,12.32
2023-02-09T12:17:22.175Z,12.25
2023-02-09T12:20:00.712Z,12.95
2023-02-09T12:22:34.148Z,13.65
2023-02-09T12:25:36.151Z,13.53
2023-02-09T12:28:09.425Z,12.86
2023-02-09T12:30:42.274Z,12.75
2023-02-09T12:33:24.780Z,12.13
2023-02-09T12:36:09.907Z,12.35
2023-02-09T12:39:04.565Z,11.92
2023-02-09T12:41:52.036Z,11.86
2023-02-09T12:44:19.902Z,12.00
2023-02-09T12:46:46.924Z,12.24
2023-02-09T12:49:14.025Z,11.95
2023-02-09T12:51:53.008Z,10.99
2023-02-09T12:54:39.087Z,10.23
2023-02-09T12:57:15.263Z,10.54
2023-02-09T12:59:59.740Z,10.54
2023-02-09T13:02:39.574Z,10.82
2023-02-09T13:05:15.477Z,11.23
2023-02-09T13:08:00.405Z,11.71
2023-02-09T13:10:45.813Z,11.34
2023-02-09T13:13:12.678Z,10.92
2023-02-09T13:16:25.016Z,10.70
2023-02-09T13:19:24.835Z,10.64
2023-02-09T13:21:57.933Z,10.31
2023-02-09T13:24:45.002Z,9.65
2023-02-09T13:27:20.550Z,9.61
2023-02-09T13:29:53.670Z,9.85
2023-02-09T13:32:26.791Z,9.98
2023-02-09T13:35:28.796Z,9.74
2023-02-09T13:38:00.736Z,9.72
2023-02-09T13:40:31.108Z,9.62
2023-02-09T13:43:04.395Z,9.48
2023-02-09T13:45:31.876Z,9.47
2023-02-09T13:48:00.698Z,9.36
2023-02-09T13:50:29.373Z,9.28
2023-02-09T13:53:10.012Z,9.32
2023-02-09T13:55:40.068Z,8.90
2023-02-09T13:58:14.580Z,8.15
2023-02-09T14:00:48.382Z,7.52
2023-02-09T14:03:21.017Z,7.47
2023-02-09T14:05:51.727Z,7.55
2023-02-09T14:08:20.191Z,7.64
2023-02-09T14:10:57.821Z,7.86
2023-02-09T14:13:33.882Z,7.99
2023-02-09T14:16:06.946Z,7.88
2023-02-09T14:18:45.407Z,8.10
2023-02-09T14:21:13.535Z,8.57
2023-02-09T14:23:46.654Z,8.87
2023-02-09T14:26:28.579Z,8.89
2023-02-09T14:29:18.159Z,8.64
2023-02-09T14:31:48.022Z,8.11
2023-02-09T14:34:35.370Z,7.04
2023-02-09T14:37:11.345Z,6.37
2023-02-09T14:39:57.040Z,5.83
2023-02-09T14:42:24.105Z,5.66
2023-02-09T14:45:13.865Z,5.45
2023-02-09T14:47:44.000Z,4.97
2023-02-09T14:50:18.663Z,4.53
2023-02-09T14:52:48.068Z,4.04
2023-02-09T14:55:19.379Z,3.70
2023-02-09T14:57:46.968Z,3.50
2023-02-09T15:00:19.147Z,3.27
2023-02-09T15:02:46.741Z,3.09
2023-02-09T15:05:14.443Z,2.86
2023-02-09T15:07:45.452Z,2.68
2023-02-09T15:10:29.409Z,2.55
2023-02-09T15:12:57.559Z,2.43
2023-02-09T15:15:25.923Z,2.27
2023-02-09T15:17:55.286Z,2.13
2023-02-09T15:20:26.562Z,1.99
2023-02-09T15:22:54.588Z,1.80
2023-02-09T15:25:23.312Z,1.58
2023-02-09T15:27:57.727Z,1.23
2023-02-09T15:30:33.585Z,0.97
2023-02-09T15:33:00.976Z,0.65
2023-02-09T15:35:29.870Z,0.32
2023-02-09T15:37:59.798Z,0.06
2023-02-09T15:40:50.580Z,-0.17
2023-02-09T15:43:41.321Z,-0.40
2023-02-09T15:46:28.400Z,-0.61
2023-02-09T15:48:55.536Z,-0.88
2023-02-09T15:51:25.320Z,-1.02
2023-02-09T15:53:57.709Z,-1.16
2023-02-09T15:56:24.834Z,-1.42
2023-02-09T15:58:51.863Z,-1.55
2023-02-09T16:01:19.353Z,-1.70
2023-02-09T16:03:46.414Z,-1.80
2023-02-09T16:06:20.609Z,-1.93
2023-02-09T16:08:48.990Z,-2.01
2023-02-09T16:11:26.818Z,-2.16
2023-02-09T16:13:54.561Z,-2.35
2023-02-09T16:16:24.783Z,-2.51
2023-02-09T16:18:52.007Z,-2.62
2023-02-09T16:21:26.536Z,-2.72
2023-02-09T16:23:56.141Z,-2.84
2023-02-09T16:26:24.744Z,-2.90
2023-02-09T16:28:51.974Z,-2.97
2023-02-09T16:31:19.484Z,-3.06
2023-02-09T16:33:46.828Z,-3.15
2023-02-09T16:36:19.842Z,-3.30
2023-02-09T16:38:47.133Z,-3.38
2023-02-09T16:41:35.584Z,-3.49
2023-02-09T16:44:14.144Z,-3.63
2023-02-09T16:46:41.416Z,-3.77
2023-02-09T16:49:19.682Z,-3.87
2023-02-09T16:51:46.844Z,-3.97
2023-02-09T16:54:13.796Z,-4.06
2023-02-09T16:56:53.619Z,-4.08
2023-02-09T16:59:21.235Z,-4.18
2023-02-09T17:01:49.143Z,-4.25
2023-02-09T17:04:16.226Z,-4.27
2023-02-09T17:06:45.064Z,-4.27
2023-02-09T17:09:15.756Z,-4.31
2023-02-09T17:11:43.093Z,-4.36
2023-02-09T17:14:11.284Z,-4.41
2023-02-09T17:16:41.719Z,-4.48
2023-02-09T17:19:14.776Z,-4.60
2023-02-09T17:21:42.404Z,-4.62
2023-02-09T17:24:18.811Z,-4.66
2023-02-09T17:26:46.052Z,-4.72
2023-02-09T17:29:13.857Z,-4.76
2023-02-09T17:31:52.823Z,-4.78
2023-02-09T17:34:22.088Z,-4.84
2023-02-09T17:36:49.272Z,-4.85
2023-02-09T17:39:18.786Z,-4.87
2023-02-09T17:41:48.603Z,-4.85
2023-02-09T17:44:39.030Z,-4.81
2023-02-09T17:47:15.521Z,-4.75
2023-02-09T17:49:42.581Z,-4.63
2023-02-09T17:52:18.015Z,-4.47
2023-02-09T17:54:45.652Z,-4.29
2023-02-09T17:57:15.141Z,-4.12
2023-02-09T17:59:42.346Z,-3.95
2023-02-09T18:02:15.975Z,-3.84
2023-02-09T18:04:43.710Z,-3.77
2023-02-09T18:07:11.307Z,-3.64
2023-02-09T18:09:38.181Z,-3.51
2023-02-09T18:12:20.530Z,-3.44
2023-02-09T18:14:47.541Z,-3.32
2023-02-09T18:17:14.753Z,-3.24
2023-02-09T18:19:41.657Z,-3.20
2023-02-09T18:22:13.944Z,-3.14
2023-02-09T18:24:41.905Z,-3.10
2023-02-09T18:27:16.718Z,-3.07
2023-02-09T18:29:43.834Z,-3.01
2023-02-09T18:32:15.153Z,-2.99
2023-02-09T18:34:42.022Z,-3.00
2023-02-09T18:37:09.312Z,-2.99
2023-02-09T18:39:38.661Z,-2.96
2023-02-09T18:42:06.036Z,-3.05
2023-02-09T18:44:33.297Z,-3.11
2023-02-09T18:47:00.685Z,-3.15
2023-02-09T18:49:28.184Z,-3.19
2023-02-09T18:51:57.056Z,-3.22
2023-02-09T18:54:24.037Z,-3.21
2023-02-09T18:56:52.963Z,-3.25
2023-02-09T18:59:20.102Z,-3.31
2023-02-09T19:01:47.388Z,-3.37
2023-02-09T19:04:14.329Z,-3.38
2023-02-09T19:06:41.593Z,-3.34
2023-02-09T19:09:08.462Z,-3.32
2023-02-09T19:11:35.681Z,-3.28
2023-02-09T19:14:21.497Z,-3.29
2023-02-09T19:16:48.826Z,-3.30
2023-02-09T19:19:16.282Z,-3.33
2023-02-09T19:21:43.507Z,-3.34
2023-02-09T19:24:10.403Z,-3.36
2023-02-09T19:26:37.605Z,-3.35
2023-02-09T19:29:04.676Z,-3.33
2023-02-09T19:31:31.902Z,-3.31
2023-02-09T19:33:59.151Z,-3.29
2023-02-09T19:36:28.062Z,-3.26
2023-02-09T19:38:55.963Z,-3.27
2023-02-09T19:41:25.462Z,-3.22
2023-02-09T19:43:59.108Z,-3.23
2023-02-09T19:46:26.387Z,-3.22
2023-02-09T19:48:56.062Z,-3.22
2023-02-09T19:51:23.535Z,-3.22
2023-02-09T19:53:50.972Z,-3.21
2023-02-09T19:56:20.825Z,-3.25
2023-02-09T19:58:47.741Z,-3.24
2023-02-09T20:01:16.004Z,-3.25
2023-02-09T20:03:42.979Z,-3.28
2023-02-09T20:06:13.092Z,-3.28
2023-02-09T20:08:40.896Z,-3.34
2023-02-09T20:11:10.779Z,-3.40
2023-02-09T20:13:37.669Z,-3.44
2023-02-09T20:16:09.941Z,-3.46
2023-02-09T20:18:37.362Z,-3.48
2023-02-09T20:21:08.704Z,-3.47
2023-02-09T20:23:37.341Z,-3.48
2023-02-09T20:26:13.483Z,-3.47
2023-02-09T20:28:40.672Z,-3.49
2023-02-09T20:31:08.945Z,-3.52
2023-02-09T20:33:38.558Z,-3.55
2023-02-09T20:36:08.339Z,-3.52
2023-02-09T20:38:37.231Z,-3.53
2023-02-09T20:41:13.181Z,-3.50
2023-02-09T20:43:59.264Z,-3.51
2023-02-09T20:46:47.781Z,-3.52
2023-02-09T20:49:16.989Z,-3.56
2023-02-09T20:51:45.829Z,-3.57
2023-02-09T20:54:13.264Z,-3.52
2023-02-09T20:56:41.295Z,-3.53
2023-02-09T20:59:08.218Z,-3.52
2023-02-09T21:01:37.869Z,-3.59
2023-02-09T21:04:07.441Z,-3.67
2023-02-09T21:06:37.211Z,-3.68
2023-02-09T21:09:05.990Z,-3.66
2023-02-09T21:12:00.679Z,-3.62
2023-02-09T21:14:41.842Z,-3.64
2023-02-09T21:17:09.708Z,-3.67
2023-02-09T21:19:36.575Z,-3.63
2023-02-09T21:22:03.970Z,-3.60
2023-02-09T21:24:40.003Z,-3.65
2023-02-09T21:27:08.215Z,-3.60
2023-02-09T21:29:35.968Z,-3.62
2023-02-09T21:32:20.252Z,-3.64
2023-02-09T21:34:52.922Z,-3.66
2023-02-09T21:37:20.215Z,-3.70
2023-02-09T21:39:56.464Z,-3.74
2023-02-09T21:42:26.433Z,-3.76
2023-02-09T21:44:54.992Z,-3.80
2023-02-09T21:47:40.034Z,-3.85
2023-02-09T21:50:09.516Z,-3.89
2023-02-09T21:52:36.846Z,-3.89
2023-02-09T21:55:07.502Z,-3.92
2023-02-09T21:57:38.320Z,-3.94
2023-02-09T22:00:17.948Z,-3.94
2023-02-09T22:02:45.770Z,-3.91
2023-02-09T22:05:12.809Z,-3.92
2023-02-09T22:07:41.471Z,-3.91
2023-02-09T22:10:18.252Z,-3.86
2023-02-09T22:12:52.895Z,-3.84
2023-02-09T22:15:19.723Z,-3.85
2023-02-09T22:17:48.405Z,-3.89
2023-02-09T22:20:15.630Z,-3.89
2023-02-09T22:22:45.428Z,-3.93
2023-02-09T22:25:12.437Z,-3.89
2023-02-09T22:27:39.612Z,-3.92
2023-02-09T22:30:06.782Z,-3.91
2023-02-09T22:32:33.920Z,-3.90
2023-02-09T22:35:00.834Z,-3.95
2023-02-09T22:37:27.972Z,-3.95
2023-02-09T22:39:54.891Z,-3.90
2023-02-09T22:42:22.038Z,-3.94
2023-02-09T22:44:48.868Z,-3.94
2023-02-09T22:47:16.005Z,-3.97
2023-02-09T22:49:45.477Z,-4.02
2023-02-09T22:52:12.827Z,-3.99
2023-02-09T22:54:39.751Z,-4.06
2023-02-09T22:57:06.875Z,-4.10
2023-02-09T22:59:36.245Z,-4.08
2023-02-09T23:02:04.133Z,-4.02
2023-02-09T23:04:32.154Z,-4.07
2023-02-09T23:06:59.902Z,-4.06
2023-02-09T23:09:26.988Z,-4.09
2023-02-09T23:11:54.317Z,-4.09
2023-02-09T23:14:21.255Z,-4.03
2023-02-09T23:16:48.469Z,-3.93
2023-02-09T23:19:20.329Z,-3.95
2023-02-09T23:21:49.431Z,-4.01
2023-02-09T23:24:18.590Z,-4.04
2023-02-09T23:26:45.843Z,-4.04
2023-02-09T23:29:14.598Z,-4.08
2023-02-09T23:31:42.720Z,-4.12
2023-02-09T23:34:14.426Z,-4.16
2023-02-09T23:36:42.075Z,-4.20
2023-02-09T23:39:09.139Z,-4.25
2023-02-09T23:41:36.377Z,-4.33
2023-02-09T23:44:03.995Z,-4.35
2023-02-09T23:46:31.264Z,-4.37
2023-02-09T23:48:58.776Z,-4.36
2023-02-09T23:51:31.345Z,-4.33
2023-02-09T23:54:01.153Z,-4.32
2023-02-09T23:56:31.462Z,-4.33
2023-02-09T23:58:58.346Z,-4.39
